Sabinal, Texas
Current Conditions -  °F | °C
As of 6:55 PM on Saturday 25 Oct 2014 (Local Time) from KUVA Reporting Station
Clear Clear  
Wind Chill: 28°   Ceiling: Unl
Heat Index: 28°   Visibility: 10mi
Dew Point: 12°   Wind: 5mph
Humidity: 37%   Direction: 140°SE
Pressure: 30.08"   Gusts: NA
Location:  29.32°N, 99.47°W
Report Text: KUVA 252355Z AUTO 14004KT 10SM CLR 28/12 A3008 RMK AO2 T02770118 10311 20276
Loading
Personal Weather Stations






























Interactive Weather Map
Tropical Storm Tracking
New forecast layout! Learn more

10-Day Weather Forecast

Advertisements
Track Severe Weather on mobile